Hlavní strana
METAR-TAF:

METAR-TAF

Letiště :

Jämsä, Finsko

zeměpisná šířka: 61-51N, zeměpisná délka: 024-48E, výška: 143 m

Aktuální stav počasí

Zpráva byla vytvořena před 18 minutami, v 05:50 UTC
vítr z různých směrů 1 kt
Teplota -3°C
Vlhkost vzduchu 93%
Tlak 1033 hPa
Viditelnost 10 km a více
Zataženo ve výšce 2100 ft

METAR: EFHA 130550Z AUTO VRB01KT 9999 OVC021 M03/M04 Q1033

Čas: 08:08 (06:08 UTC)

Předpověď počasí

Zpráva byla vytvořena před 44 minutami, v 05:24 UTC
Předpověď platná od 13 v 06 UTC do 13 v 14 UTC
Severovýchodní vítr 3 kt
Viditelnost 10 km a více
Oblačno až skoro zataženo ve výšce 1800 ft
Pravděpodobnost 30% :
Dočasný
od 13 v 06 UTC do 13 v 09 UTC
Oblačno až skoro zataženo ve výšce 800 ft
Dočasný
od 13 v 12 UTC do 13 v 14 UTC
Oblačno až skoro zataženo ve výšce 800 ft

TAF: EFHA 130524Z 1306/1314 05003KT 9999 BKN018 PROB30 TEMPO 1306/1309 BKN008 TEMPO 1312/1314 BKN008

Stav a předpovědi počasí z více než 4 000 letišť (zprávy METAR a TAF).

Červené a žluté tečky na mapě představují dostupné meteorologické stanice.

Když kurzor umístíte na tečku, zobrazí se název stanice.

Pak kliknutím zobrazíte stav a předpověď počasí.

Chcete-li změnit mapu, kliknutím na zelené tlačítko se znaménkem +mapu přiblížíte, kliknutím na zelené tlačítko se znaménkem – mapu oddálíte a kliknutím na zelené šipky přejdete na sousední mapy.


METAR-TAF: